Time;durP1;ratioP1;P1;durP2;ratioP2;P2;SDS_P1;SDS_P2;PMS_P1;PMS_P2;Temp;Humidity;BMP_temperature;BMP_pressure;BME280_temperature;BME280_humidity;BME280_pressure;Samples;Min_cycle;Max_cycle;Signal;HPM_P1;HPM_P2
2022/04/14 00:00:23;;;;;;;;;23.50;23.00;;;;;;;;5034081;28;11163;-74
2022/04/14 00:02:50;;;;;;;;;16.00;16.00;;;;;;;;5039468;28;10755;-74
2022/04/14 00:05:18;;;;;;;;;18.50;16.50;;;;;;;;5040061;28;10681;-74
2022/04/14 00:07:47;;;;;;;;;22.75;22.75;;;;;;;;5031648;28;10563;-74
2022/04/14 00:10:14;;;;;;;;;24.50;23.00;;;;;;;;5036574;28;10640;-75
2022/04/14 00:12:42;;;;;;;;;20.25;20.25;;;;;;;;5042466;28;10796;-75
2022/04/14 00:15:11;;;;;;;;;22.00;22.00;;;;;;;;5040987;28;10815;-74
2022/04/14 00:17:38;;;;;;;;;17.75;17.75;;;;;;;;5036705;28;10709;-74
2022/04/14 00:20:08;;;;;;;;;18.00;18.00;;;;;;;;5043153;28;10561;-75
2022/04/14 00:22:36;;;;;;;;;21.00;21.00;;;;;;;;5040392;28;10676;-73
2022/04/14 00:25:06;;;;;;;;;17.00;15.75;;;;;;;;5039528;28;10887;-74
2022/04/14 00:27:33;;;;;;;;;15.50;14.00;;;;;;;;5040003;28;10868;-75
2022/04/14 00:30:01;;;;;;;;;19.50;18.25;;;;;;;;5038916;28;11179;-75
2022/04/14 00:32:30;;;;;;;;;18.25;18.00;;;;;;;;5040668;28;10808;-74
2022/04/14 00:34:58;;;;;;;;;22.25;19.75;;;;;;;;5034827;28;11107;-75
2022/04/14 00:37:25;;;;;;;;;32.00;32.00;;;;;;;;5037743;28;11129;-75
2022/04/14 00:39:52;;;;;;;;;25.25;23.00;;;;;;;;5044183;28;11452;-75
2022/04/14 00:42:21;;;;;;;;;24.00;24.00;;;;;;;;5041410;28;11147;-75
2022/04/14 00:44:48;;;;;;;;;28.75;27.00;;;;;;;;5041945;28;11214;-75
2022/04/14 00:47:16;;;;;;;;;28.75;27.00;;;;;;;;5036128;28;11466;-74
2022/04/14 00:49:44;;;;;;;;;23.25;22.50;;;;;;;;5031836;28;11133;-75
2022/04/14 00:52:13;;;;;;;;;19.25;18.00;;;;;;;;5040508;28;11026;-75
2022/04/14 00:54:40;;;;;;;;;25.50;23.25;;;;;;;;5035511;28;11030;-74
2022/04/14 00:57:08;;;;;;;;;18.75;17.00;;;;;;;;5014297;28;11053;-75
2022/04/14 00:59:37;;;;;;;;;26.00;23.75;;;;;;;;5038987;28;10950;-74
2022/04/14 01:02:05;;;;;;;;;32.50;29.50;;;;;;;;5029215;28;11068;-74
2022/04/14 01:04:33;;;;;;;;;28.50;27.50;;;;;;;;5037486;28;11148;-75
2022/04/14 01:07:01;;;;;;;;;20.50;18.50;;;;;;;;5042734;28;11321;-74
2022/04/14 01:09:29;;;;;;;;;29.25;27.75;;;;;;;;5042838;28;11041;-74
2022/04/14 01:11:57;;;;;;;;;36.00;29.00;;;;;;;;5039801;28;11126;-74
2022/04/14 01:14:27;;;;;;;;;42.25;34.25;;;;;;;;5046576;28;11935;-74
2022/04/14 01:16:57;;;;;;;;;30.75;29.25;;;;;;;;5045328;28;11444;-75
2022/04/14 01:19:24;;;;;;;;;27.50;27.25;;;;;;;;5044566;28;11559;-75
2022/04/14 01:21:58;;;;;;;;;35.75;30.25;;;;;;;;5041786;28;11561;-74
2022/04/14 01:24:27;;;;;;;;;22.25;20.50;;;;;;;;5038542;28;12140;-74
2022/04/14 01:26:55;;;;;;;;;25.50;25.50;;;;;;;;5042853;28;11917;-74
2022/04/14 01:29:23;;;;;;;;;29.50;26.00;;;;;;;;5046358;28;11143;-74
2022/04/14 01:31:51;;;;;;;;;29.25;28.50;;;;;;;;5043933;28;11008;-75
2022/04/14 01:34:18;;;;;;;;;22.50;22.25;;;;;;;;5026417;28;11193;-75
2022/04/14 01:36:46;;;;;;;;;28.75;24.00;;;;;;;;5040147;28;10975;-75
2022/04/14 01:39:14;;;;;;;;;29.25;25.50;;;;;;;;5041773;28;11871;-75
2022/04/14 01:41:43;;;;;;;;;22.00;18.00;;;;;;;;5039711;28;11147;-75
2022/04/14 01:44:11;;;;;;;;;21.50;21.50;;;;;;;;5044963;28;11765;-75
2022/04/14 01:46:41;;;;;;;;;23.00;21.00;;;;;;;;5043188;28;11244;-75
2022/04/14 01:49:09;;;;;;;;;28.50;24.00;;;;;;;;5045970;28;11297;-75
2022/04/14 01:51:37;;;;;;;;;21.50;18.25;;;;;;;;5041770;28;11101;-75
2022/04/14 01:54:04;;;;;;;;;23.25;19.75;;;;;;;;5046386;28;11107;-75
2022/04/14 01:56:32;;;;;;;;;25.50;22.50;;;;;;;;5039650;28;11167;-75
2022/04/14 01:59:01;;;;;;;;;25.75;25.75;;;;;;;;5042849;28;11131;-74
2022/04/14 02:01:29;;;;;;;;;21.00;19.50;;;;;;;;5043203;28;10915;-74
2022/04/14 02:03:58;;;;;;;;;27.25;24.25;;;;;;;;5040546;28;10971;-74
2022/04/14 02:06:25;;;;;;;;;28.00;23.75;;;;;;;;5038877;28;11136;-75
2022/04/14 02:08:52;;;;;;;;;27.25;26.00;;;;;;;;5042787;28;11041;-74
2022/04/14 02:11:20;;;;;;;;;30.25;28.75;;;;;;;;5043154;28;11201;-74
2022/04/14 02:13:47;;;;;;;;;22.50;22.50;;;;;;;;5041941;28;11244;-74
2022/04/14 02:16:16;;;;;;;;;21.50;20.00;;;;;;;;5041621;28;11222;-75
2022/04/14 02:18:44;;;;;;;;;28.75;26.75;;;;;;;;5040352;28;11052;-74
2022/04/14 02:21:11;;;;;;;;;19.50;19.50;;;;;;;;5042321;28;11699;-74
2022/04/14 02:23:38;;;;;;;;;30.25;26.50;;;;;;;;5042456;28;11461;-74
2022/04/14 02:26:06;;;;;;;;;36.25;29.50;;;;;;;;5041529;28;11193;-74
2022/04/14 02:28:33;;;;;;;;;18.00;16.00;;;;;;;;5032174;28;11933;-73
2022/04/14 02:31:00;;;;;;;;;27.75;25.25;;;;;;;;5037969;28;10789;-74
2022/04/14 02:33:28;;;;;;;;;19.50;19.25;;;;;;;;5044342;28;11126;-74
2022/04/14 02:35:56;;;;;;;;;27.00;23.75;;;;;;;;5047497;28;11140;-74
2022/04/14 02:38:23;;;;;;;;;23.00;23.00;;;;;;;;5047194;28;10951;-74
2022/04/14 02:40:50;;;;;;;;;30.25;30.25;;;;;;;;5048397;28;10971;-75
2022/04/14 02:43:17;;;;;;;;;28.25;20.50;;;;;;;;5043452;28;10983;-75
2022/04/14 02:45:44;;;;;;;;;30.75;29.25;;;;;;;;5044305;28;10926;-74
2022/04/14 02:48:12;;;;;;;;;33.25;31.50;;;;;;;;5042507;28;11723;-74
2022/04/14 02:50:43;;;;;;;;;20.00;18.50;;;;;;;;5043339;28;10987;-74
2022/04/14 02:53:10;;;;;;;;;26.00;24.00;;;;;;;;5045500;28;11961;-74
2022/04/14 02:55:38;;;;;;;;;26.50;26.50;;;;;;;;5021859;28;10962;-74
2022/04/14 02:58:05;;;;;;;;;28.25;26.00;;;;;;;;5044142;28;11098;-74
2022/04/14 03:00:32;;;;;;;;;32.50;30.50;;;;;;;;5040499;28;11001;-75
2022/04/14 03:03:00;;;;;;;;;28.50;27.25;;;;;;;;5042425;28;10979;-75
2022/04/14 03:05:28;;;;;;;;;27.25;27.25;;;;;;;;5036952;28;10969;-74
2022/04/14 03:07:56;;;;;;;;;28.00;28.00;;;;;;;;5033938;28;10860;-74
2022/04/14 03:10:24;;;;;;;;;27.75;25.75;;;;;;;;5044645;28;10791;-74
2022/04/14 03:12:51;;;;;;;;;25.75;24.25;;;;;;;;5024292;28;10813;-75
2022/04/14 03:15:19;;;;;;;;;24.50;24.00;;;;;;;;5044277;28;10734;-75
2022/04/14 03:17:49;;;;;;;;;31.25;27.25;;;;;;;;5041397;28;10721;-74
2022/04/14 03:20:16;;;;;;;;;25.25;19.50;;;;;;;;5039541;28;11091;-74
2022/04/14 03:22:44;;;;;;;;;25.75;25.75;;;;;;;;5038573;28;10649;-74
2022/04/14 03:25:14;;;;;;;;;27.00;24.00;;;;;;;;5036665;28;11448;-75
2022/04/14 03:27:42;;;;;;;;;25.50;23.75;;;;;;;;5038968;28;10759;-76
2022/04/14 03:30:11;;;;;;;;;28.00;24.00;;;;;;;;5038160;28;11479;-74
2022/04/14 03:32:42;;;;;;;;;26.50;24.50;;;;;;;;5044757;28;10797;-75
2022/04/14 03:35:10;;;;;;;;;24.50;22.75;;;;;;;;5041934;28;10682;-74
2022/04/14 03:37:38;;;;;;;;;28.00;25.25;;;;;;;;5043100;28;10790;-75
2022/04/14 03:40:06;;;;;;;;;31.25;29.50;;;;;;;;5041466;28;11492;-74
2022/04/14 03:42:35;;;;;;;;;20.00;20.00;;;;;;;;5042717;28;10833;-74
2022/04/14 03:45:03;;;;;;;;;23.75;23.75;;;;;;;;5042008;28;10627;-74
2022/04/14 03:47:30;;;;;;;;;24.00;24.00;;;;;;;;5034336;28;10824;-74
2022/04/14 03:49:58;;;;;;;;;19.50;18.50;;;;;;;;5031040;28;10826;-74
2022/04/14 03:52:27;;;;;;;;;21.50;19.50;;;;;;;;5042285;28;11623;-75
2022/04/14 03:54:56;;;;;;;;;21.50;19.25;;;;;;;;5036521;28;11686;-75
2022/04/14 03:57:23;;;;;;;;;16.75;14.75;;;;;;;;5019508;28;10727;-75
2022/04/14 03:59:52;;;;;;;;;24.75;24.00;;;;;;;;5041215;28;11031;-74
2022/04/14 04:02:19;;;;;;;;;26.50;25.75;;;;;;;;5041424;28;11010;-74
2022/04/14 04:04:47;;;;;;;;;22.75;21.25;;;;;;;;5037290;28;11270;-75
2022/04/14 04:07:14;;;;;;;;;29.50;25.50;;;;;;;;5042126;28;11077;-74
2022/04/14 04:09:41;;;;;;;;;24.75;22.25;;;;;;;;5040053;28;11057;-76
2022/04/14 04:12:09;;;;;;;;;29.00;23.25;;;;;;;;5047798;28;11302;-75
2022/04/14 04:14:37;;;;;;;;;25.75;23.00;;;;;;;;5033908;28;11197;-75
2022/04/14 04:17:06;;;;;;;;;25.25;23.75;;;;;;;;5043032;28;10985;-75
2022/04/14 04:19:33;;;;;;;;;24.00;23.00;;;;;;;;5043339;28;11119;-75
2022/04/14 04:22:00;;;;;;;;;24.75;23.50;;;;;;;;5041813;28;10985;-75
2022/04/14 04:24:28;;;;;;;;;24.50;23.75;;;;;;;;5047032;28;11030;-75
2022/04/14 04:26:55;;;;;;;;;27.00;24.75;;;;;;;;5039896;28;11761;-76
2022/04/14 04:29:23;;;;;;;;;32.75;29.00;;;;;;;;5039339;28;11069;-75
2022/04/14 04:31:50;;;;;;;;;31.25;26.75;;;;;;;;5037196;28;10944;-74
2022/04/14 04:34:19;;;;;;;;;32.25;30.25;;;;;;;;5042559;28;11131;-74
2022/04/14 04:36:46;;;;;;;;;26.25;26.25;;;;;;;;5040891;28;10998;-74
2022/04/14 04:39:13;;;;;;;;;33.75;30.00;;;;;;;;5042243;28;10954;-74
2022/04/14 04:41:41;;;;;;;;;28.00;25.75;;;;;;;;5040142;28;11023;-74
2022/04/14 04:44:09;;;;;;;;;26.00;24.25;;;;;;;;5041374;28;10867;-74
2022/04/14 04:46:37;;;;;;;;;29.00;25.50;;;;;;;;5037727;28;10886;-74
2022/04/14 04:49:04;;;;;;;;;25.00;22.00;;;;;;;;5036393;28;10821;-74
2022/04/14 04:51:33;;;;;;;;;27.25;27.25;;;;;;;;5044728;28;10875;-74
2022/04/14 04:54:00;;;;;;;;;18.75;18.75;;;;;;;;5044228;28;11633;-73
2022/04/14 04:56:27;;;;;;;;;26.75;20.00;;;;;;;;5046243;28;10812;-74
2022/04/14 04:58:55;;;;;;;;;21.25;21.25;;;;;;;;5046490;28;10723;-74
2022/04/14 05:01:22;;;;;;;;;22.50;21.00;;;;;;;;5028620;28;11570;-75
2022/04/14 05:03:49;;;;;;;;;28.50;24.25;;;;;;;;5020154;28;11062;-75
2022/04/14 05:06:17;;;;;;;;;23.25;19.75;;;;;;;;5018635;28;11109;-74
2022/04/14 05:08:46;;;;;;;;;25.50;23.00;;;;;;;;5019942;28;10885;-74
2022/04/14 05:11:14;;;;;;;;;26.25;20.50;;;;;;;;5018206;28;10951;-75
2022/04/14 05:13:41;;;;;;;;;21.00;21.00;;;;;;;;5019660;28;10907;-74
2022/04/14 05:16:09;;;;;;;;;20.75;20.75;;;;;;;;5018310;28;10971;-74
2022/04/14 05:18:36;;;;;;;;;26.00;23.50;;;;;;;;5019519;28;11133;-74
2022/04/14 05:21:03;;;;;;;;;25.50;20.25;;;;;;;;5018206;28;11078;-75
2022/04/14 05:23:31;;;;;;;;;20.75;17.25;;;;;;;;5018717;28;11019;-75
2022/04/14 05:26:00;;;;;;;;;18.00;18.00;;;;;;;;5020312;28;10966;-75
2022/04/14 05:28:27;;;;;;;;;24.25;22.50;;;;;;;;5019046;28;10900;-77
2022/04/14 05:30:54;;;;;;;;;22.25;22.00;;;;;;;;5021534;28;10979;-83
2022/04/14 05:33:22;;;;;;;;;11.75;11.75;;;;;;;;5018868;28;11062;-79
2022/04/14 05:35:49;;;;;;;;;18.50;18.50;;;;;;;;5021181;28;10890;-79
2022/04/14 05:38:16;;;;;;;;;21.75;21.75;;;;;;;;5009315;28;11085;-78
2022/04/14 05:40:45;;;;;;;;;21.75;20.25;;;;;;;;5020502;28;11073;-79
2022/04/14 05:43:17;;;;;;;;;16.25;16.25;;;;;;;;5025036;28;11085;-79
2022/04/14 05:45:47;;;;;;;;;18.50;18.50;;;;;;;;5020504;28;10836;-79
2022/04/14 05:48:15;;;;;;;;;22.50;19.75;;;;;;;;5021005;28;11148;-79
2022/04/14 05:50:42;;;;;;;;;23.50;21.25;;;;;;;;5035638;28;11053;-79
2022/04/14 05:53:10;;;;;;;;;26.50;23.00;;;;;;;;5024477;28;11776;-78
2022/04/14 05:55:39;;;;;;;;;20.75;20.75;;;;;;;;5020586;28;11070;-78
2022/04/14 05:58:07;;;;;;;;;27.75;27.25;;;;;;;;5025259;28;10903;-78
2022/04/14 06:00:37;;;;;;;;;25.00;22.75;;;;;;;;5025023;28;10848;-79
2022/04/14 06:03:04;;;;;;;;;23.50;22.25;;;;;;;;5024444;28;11076;-79
2022/04/14 06:05:33;;;;;;;;;24.25;24.00;;;;;;;;5026183;28;10909;-78
2022/04/14 06:08:01;;;;;;;;;25.00;25.00;;;;;;;;5024486;28;10950;-79
2022/04/14 06:10:29;;;;;;;;;23.75;23.25;;;;;;;;5023764;28;11122;-79
2022/04/14 06:12:57;;;;;;;;;23.50;23.50;;;;;;;;5024660;28;11129;-79
2022/04/14 06:15:26;;;;;;;;;24.25;23.75;;;;;;;;5023468;28;10921;-79
2022/04/14 06:17:55;;;;;;;;;27.25;27.25;;;;;;;;5025850;28;10747;-81
2022/04/14 06:20:23;;;;;;;;;34.75;30.75;;;;;;;;5012325;28;11897;-85
2022/04/14 06:22:52;;;;;;;;;31.25;27.25;;;;;;;;5023337;28;11126;-85
2022/04/14 06:25:22;;;;;;;;;27.50;26.75;;;;;;;;5025943;28;11004;-82
2022/04/14 06:27:50;;;;;;;;;24.00;24.00;;;;;;;;5021401;28;11452;-84
2022/04/14 06:30:19;;;;;;;;;24.50;23.75;;;;;;;;5031766;28;10774;-84
2022/04/14 06:32:58;;;;;;;;;26.75;25.00;;;;;;;;5010362;28;10627;-80
2022/04/14 06:35:26;;;;;;;;;29.25;26.50;;;;;;;;5021684;28;10580;-85
2022/04/14 06:37:53;;;;;;;;;25.25;23.75;;;;;;;;5023688;28;10622;-83
2022/04/14 06:40:25;;;;;;;;;20.25;19.25;;;;;;;;5015662;28;10511;-80
2022/04/14 06:42:52;;;;;;;;;26.25;24.75;;;;;;;;5025783;28;10513;-84
2022/04/14 06:45:20;;;;;;;;;26.25;26.25;;;;;;;;5021674;28;10535;-86
2022/04/14 06:47:47;;;;;;;;;28.75;28.75;;;;;;;;5019125;28;10436;-84
2022/04/14 06:50:16;;;;;;;;;25.00;25.00;;;;;;;;5024321;28;10391;-85
2022/04/14 06:52:43;;;;;;;;;22.75;22.75;;;;;;;;5017846;28;10238;-79
2022/04/14 06:55:11;;;;;;;;;31.50;29.00;;;;;;;;5014469;28;10369;-79
2022/04/14 06:57:38;;;;;;;;;33.00;27.25;;;;;;;;5025283;28;10478;-80
2022/04/14 07:00:07;;;;;;;;;42.50;35.50;;;;;;;;5014534;28;10374;-78
2022/04/14 07:02:35;;;;;;;;;34.50;33.50;;;;;;;;5022782;28;10615;-79
2022/04/14 07:05:02;;;;;;;;;35.00;33.75;;;;;;;;5015914;28;10565;-80
2022/04/14 07:07:31;;;;;;;;;19.50;17.00;;;;;;;;5021355;28;10722;-83
2022/04/14 07:09:58;;;;;;;;;35.25;33.00;;;;;;;;5021240;28;10483;-83
2022/04/14 07:12:25;;;;;;;;;38.75;36.50;;;;;;;;5050313;28;10589;-79
2022/04/14 07:14:53;;;;;;;;;36.25;33.00;;;;;;;;5014599;28;10466;-79
2022/04/14 07:17:22;;;;;;;;;36.00;32.50;;;;;;;;5015130;28;10548;-79
2022/04/14 07:19:50;;;;;;;;;32.25;28.50;;;;;;;;5015064;28;10366;-78
2022/04/14 07:22:18;;;;;;;;;31.00;29.00;;;;;;;;5016158;28;10308;-78
2022/04/14 07:24:48;;;;;;;;;31.25;30.25;;;;;;;;5018316;28;9967;-77
2022/04/14 07:27:17;;;;;;;;;27.50;26.25;;;;;;;;5020521;28;10243;-78
2022/04/14 07:29:45;;;;;;;;;22.50;21.50;;;;;;;;5023161;28;10061;-78
2022/04/14 07:32:13;;;;;;;;;24.50;23.50;;;;;;;;5034029;28;9830;-77
2022/04/14 07:34:45;;;;;;;;;22.25;20.75;;;;;;;;5041995;28;9776;-78
2022/04/14 07:37:19;;;;;;;;;17.75;17.75;;;;;;;;5040219;28;9700;-78
2022/04/14 07:39:48;;;;;;;;;22.50;22.25;;;;;;;;5040439;28;10286;-78
2022/04/14 07:42:16;;;;;;;;;18.00;18.00;;;;;;;;5044123;28;9672;-78
2022/04/14 07:44:43;;;;;;;;;24.00;21.00;;;;;;;;5036185;28;9445;-78
2022/04/14 07:47:10;;;;;;;;;18.50;18.50;;;;;;;;5042963;28;9494;-77
2022/04/14 07:49:38;;;;;;;;;20.33;19.00;;;;;;;;5042081;28;9490;-78
2022/04/14 07:52:08;;;;;;;;;20.00;18.00;;;;;;;;5039274;28;9396;-79
2022/04/14 07:54:38;;;;;;;;;17.00;17.00;;;;;;;;5024217;28;9469;-79
2022/04/14 07:57:18;;;;;;;;;15.67;15.67;;;;;;;;5039207;28;9287;-79
2022/04/14 07:59:46;;;;;;;;;12.00;12.00;;;;;;;;5043061;28;9072;-78
2022/04/14 08:02:13;;;;;;;;;16.00;12.00;;;;;;;;5039929;28;9096;-78
2022/04/14 08:04:41;;;;;;;;;8.67;7.33;;;;;;;;5043176;28;9083;-79
2022/04/14 08:07:08;;;;;;;;;11.00;10.67;;;;;;;;5024041;28;9041;-79
2022/04/14 08:09:35;;;;;;;;;18.33;16.67;;;;;;;;5040503;28;9024;-81
2022/04/14 08:12:03;;;;;;;;;19.00;19.00;;;;;;;;5038855;28;8951;-79
2022/04/14 08:14:32;;;;;;;;;19.33;19.33;;;;;;;;5041670;28;8914;-79
2022/04/14 08:17:04;;;;;;;;;19.50;16.75;;;;;;;;5024578;28;8938;-80
2022/04/14 08:19:32;;;;;;;;;17.00;17.00;;;;;;;;5022386;28;8873;-80
2022/04/14 08:21:59;;;;;;;;;18.25;18.25;;;;;;;;5042552;28;8860;-76
2022/04/14 08:24:28;;;;;;;;;20.50;19.00;;;;;;;;5039255;28;8878;-78
2022/04/14 08:26:59;;;;;;;;;19.00;19.00;;;;;;;;5038802;28;8858;-83
2022/04/14 08:29:27;;;;;;;;;21.75;20.50;;;;;;;;5039420;28;9395;-81
2022/04/14 08:31:56;;;;;;;;;19.25;18.00;;;;;;;;5041006;28;8858;-81
2022/04/14 08:34:24;;;;;;;;;18.75;16.75;;;;;;;;5021216;28;8860;-80
2022/04/14 08:36:52;;;;;;;;;18.00;18.00;;;;;;;;5040941;28;8967;-80
2022/04/14 08:39:20;;;;;;;;;14.25;14.25;;;;;;;;5041563;28;8884;-80
2022/04/14 08:41:51;;;;;;;;;20.75;18.25;;;;;;;;5040786;28;8874;-81
2022/04/14 08:44:25;;;;;;;;;16.25;15.25;;;;;;;;5040958;28;8876;-80
2022/04/14 08:46:53;;;;;;;;;21.50;19.00;;;;;;;;5039034;28;8940;-81
2022/04/14 08:49:31;;;;;;;;;15.75;14.75;;;;;;;;5042381;28;9704;-83
2022/04/14 08:52:02;;;;;;;;;13.75;13.75;;;;;;;;5042140;28;8950;-81
2022/04/14 08:54:31;;;;;;;;;15.25;15.25;;;;;;;;5041864;28;8903;-82
2022/04/14 08:57:00;;;;;;;;;13.00;12.00;;;;;;;;5025995;28;9746;-81
2022/04/14 08:59:28;;;;;;;;;10.00;10.00;;;;;;;;5037070;28;8864;-79
2022/04/14 09:01:57;;;;;;;;;11.00;11.00;;;;;;;;5041992;28;8843;-80
2022/04/14 09:04:26;;;;;;;;;12.00;11.75;;;;;;;;5039320;28;8856;-80
2022/04/14 09:06:54;;;;;;;;;10.50;9.50;;;;;;;;5042001;28;8864;-80
2022/04/14 09:09:28;;;;;;;;;10.00;9.75;;;;;;;;5021887;28;8910;-80
2022/04/14 09:11:56;;;;;;;;;10.00;9.50;;;;;;;;5039867;28;8980;-80
2022/04/14 09:14:23;;;;;;;;;10.00;10.00;;;;;;;;5041570;28;8864;-80
2022/04/14 09:16:52;;;;;;;;;9.75;9.75;;;;;;;;5040738;28;8868;-81
2022/04/14 09:19:20;;;;;;;;;4.00;4.00;;;;;;;;5039251;28;8871;-80
2022/04/14 09:22:00;;;;;;;;;5.00;5.00;;;;;;;;5040080;28;8851;-81
2022/04/14 09:24:40;;;;;;;;;6.00;6.00;;;;;;;;5041225;28;8855;-81
2022/04/14 09:27:09;;;;;;;;;5.40;5.40;;;;;;;;5042827;28;8856;-80
2022/04/14 09:29:37;;;;;;;;;3.00;3.00;;;;;;;;5045045;28;8856;-82
2022/04/14 09:32:05;;;;;;;;;5.20;5.20;;;;;;;;5041411;28;8784;-80
2022/04/14 09:34:48;;;;;;;;;6.00;5.00;;;;;;;;5042183;28;9646;-79
2022/04/14 09:37:18;;;;;;;;;6.40;6.40;;;;;;;;5044372;28;8872;-80
2022/04/14 09:39:56;;;;;;;;;7.60;6.20;;;;;;;;5041615;28;8874;-80
2022/04/14 09:42:25;;;;;;;;;4.00;4.00;;;;;;;;5045482;28;8863;-81
2022/04/14 09:44:52;;;;;;;;;7.60;7.40;;;;;;;;5044224;28;8860;-78
2022/04/14 09:47:50;;;;;;;;;7.80;7.00;;;;;;;;5044147;28;9622;-79
2022/04/14 09:50:28;;;;;;;;;8.00;6.00;;;;;;;;5027085;28;8860;-80
2022/04/14 09:53:01;;;;;;;;;7.60;6.20;;;;;;;;5043268;28;8856;-79
2022/04/14 09:55:29;;;;;;;;;5.60;5.60;;;;;;;;5039675;28;9465;-76
2022/04/14 09:58:10;;;;;;;;;8.20;6.00;;;;;;;;5027896;28;8862;-78
2022/04/14 10:00:42;;;;;;;;;6.80;6.80;;;;;;;;5039330;28;8834;-85
2022/04/14 10:03:12;;;;;;;;;9.20;8.40;;;;;;;;5045489;28;8894;-82
2022/04/14 10:05:40;;;;;;;;;7.20;6.80;;;;;;;;5038908;28;8877;-80
2022/04/14 10:08:09;;;;;;;;;5.60;5.60;;;;;;;;5039873;28;8884;-83
2022/04/14 10:10:38;;;;;;;;;5.80;5.80;;;;;;;;5039762;28;8860;-83
2022/04/14 10:13:07;;;;;;;;;7.00;7.00;;;;;;;;5050092;28;8980;-85
2022/04/14 10:15:36;;;;;;;;;8.00;7.40;;;;;;;;5043057;28;8886;-80
2022/04/14 10:18:09;;;;;;;;;6.60;6.60;;;;;;;;5045213;28;8864;-80
2022/04/14 10:20:37;;;;;;;;;8.20;7.00;;;;;;;;5043037;28;8860;-77
2022/04/14 10:23:05;;;;;;;;;6.00;6.00;;;;;;;;5023731;28;8879;-79
2022/04/14 10:25:36;;;;;;;;;6.40;6.40;;;;;;;;5037572;28;8879;-78
2022/04/14 10:28:04;;;;;;;;;7.00;7.00;;;;;;;;5039376;28;8872;-78
2022/04/14 10:30:32;;;;;;;;;6.00;6.00;;;;;;;;5044207;28;9688;-79
2022/04/14 10:32:59;;;;;;;;;6.00;6.00;;;;;;;;5042889;28;8836;-80
2022/04/14 10:35:28;;;;;;;;;4.80;4.80;;;;;;;;5036837;28;8898;-78
2022/04/14 10:38:04;;;;;;;;;2.00;2.00;;;;;;;;5044228;28;8873;-82
2022/04/14 10:40:34;;;;;;;;;5.00;5.00;;;;;;;;5036421;28;8913;-80
2022/04/14 10:43:01;;;;;;;;;2.40;1.40;;;;;;;;5037160;28;9624;-80
2022/04/14 10:45:29;;;;;;;;;3.60;1.60;;;;;;;;5039424;28;8986;-77
2022/04/14 10:47:58;;;;;;;;;2.40;2.40;;;;;;;;5041553;28;8876;-80
2022/04/14 10:50:27;;;;;;;;;3.40;3.40;;;;;;;;5022834;28;9009;-81
2022/04/14 10:53:08;;;;;;;;;4.40;4.40;;;;;;;;5026841;28;8902;-81
2022/04/14 10:55:52;;;;;;;;;5.60;4.80;;;;;;;;5040196;28;8850;-81
2022/04/14 10:58:55;;;;;;;;;3.60;3.60;;;;;;;;5034361;28;8867;-82
2022/04/14 11:01:58;;;;;;;;;4.00;4.00;;;;;;;;5014539;28;8906;-82
2022/04/14 11:04:28;;;;;;;;;3.80;3.80;;;;;;;;5037699;28;8884;-80
2022/04/14 11:06:59;;;;;;;;;3.40;3.40;;;;;;;;5044681;28;8875;-78
2022/04/14 11:09:55;;;;;;;;;3.20;3.20;;;;;;;;5040230;28;9642;-80
2022/04/14 11:12:25;;;;;;;;;3.00;3.00;;;;;;;;5031988;28;8925;-79
2022/04/14 11:14:55;;;;;;;;;2.80;2.80;;;;;;;;5034753;28;9008;-78
2022/04/14 11:18:00;;;;;;;;;2.20;2.20;;;;;;;;5039503;28;8842;-79
2022/04/14 11:20:53;;;;;;;;;2.20;2.20;;;;;;;;5035301;28;8882;-80
2022/04/14 11:23:24;;;;;;;;;1.00;1.00;;;;;;;;5037625;28;8867;-79
2022/04/14 11:25:53;;;;;;;;;1.80;1.80;;;;;;;;5021236;28;8860;-77
2022/04/14 11:28:25;;;;;;;;;1.80;1.80;;;;;;;;5041442;28;8951;-81
2022/04/14 11:30:53;;;;;;;;;2.20;2.20;;;;;;;;5040144;28;8792;-83
2022/04/14 11:33:39;;;;;;;;;6.60;3.80;;;;;;;;5034876;28;8937;-77
2022/04/14 11:36:11;;;;;;;;;2.00;2.00;;;;;;;;5036723;28;8885;-79
2022/04/14 11:38:52;;;;;;;;;2.00;2.00;;;;;;;;5022152;28;8962;-79
2022/04/14 11:41:41;;;;;;;;;3.80;1.80;;;;;;;;5033268;28;8893;-81
2022/04/14 11:44:13;;;;;;;;;1.00;1.00;;;;;;;;5021082;28;8914;-79
2022/04/14 11:46:42;;;;;;;;;2.80;2.80;;;;;;;;5040386;28;8870;-80
2022/04/14 11:49:12;;;;;;;;;2.80;2.80;;;;;;;;5042440;28;8855;-80
2022/04/14 11:51:44;;;;;;;;;2.80;2.80;;;;;;;;5037577;28;8887;-80
2022/04/14 11:54:11;;;;;;;;;3.00;3.00;;;;;;;;5042043;28;8844;-80
2022/04/14 11:56:39;;;;;;;;;3.00;3.00;;;;;;;;5039326;28;8877;-80
2022/04/14 11:59:08;;;;;;;;;2.80;1.20;;;;;;;;5020733;28;8882;-81
2022/04/14 12:01:49;;;;;;;;;2.40;2.40;;;;;;;;5038356;28;8847;-81
2022/04/14 12:04:17;;;;;;;;;2.80;2.80;;;;;;;;5037702;28;8907;-80
2022/04/14 12:06:54;;;;;;;;;1.60;1.60;;;;;;;;5042029;28;8905;-81
2022/04/14 12:09:22;;;;;;;;;1.40;1.40;;;;;;;;5041004;28;9602;-81
2022/04/14 12:11:50;;;;;;;;;0.00;0.00;;;;;;;;5037747;28;9626;-81
2022/04/14 12:14:17;;;;;;;;;0.20;0.20;;;;;;;;5041627;28;8896;-80
2022/04/14 12:16:54;;;;;;;;;0.40;0.40;;;;;;;;5038141;28;8890;-81
2022/04/14 12:19:22;;;;;;;;;0.40;0.40;;;;;;;;5040643;28;8867;-80
2022/04/14 12:22:03;;;;;;;;;2.80;2.80;;;;;;;;5038542;28;8871;-80
2022/04/14 12:24:30;;;;;;;;;1.20;1.20;;;;;;;;5036808;28;9642;-81
2022/04/14 12:26:58;;;;;;;;;3.00;3.00;;;;;;;;5041103;28;8852;-82
2022/04/14 12:29:27;;;;;;;;;2.80;0.80;;;;;;;;5040016;28;8864;-81
2022/04/14 12:32:09;;;;;;;;;2.60;2.60;;;;;;;;5038980;28;8824;-82
2022/04/14 12:34:36;;;;;;;;;3.00;3.00;;;;;;;;5037076;28;8868;-82
2022/04/14 12:37:12;;;;;;;;;2.60;2.60;;;;;;;;5041660;28;8994;-81
2022/04/14 12:39:54;;;;;;;;;2.80;2.80;;;;;;;;5041473;28;8848;-82
2022/04/14 12:42:25;;;;;;;;;2.80;2.80;;;;;;;;5033868;28;8884;-81
2022/04/14 12:44:52;;;;;;;;;2.60;1.40;;;;;;;;5042115;28;8871;-83
2022/04/14 12:47:30;;;;;;;;;1.80;1.80;;;;;;;;5038734;28;8867;-80
2022/04/14 12:49:58;;;;;;;;;0.80;0.80;;;;;;;;5036284;28;8876;-83
2022/04/14 12:52:26;;;;;;;;;0.60;0.60;;;;;;;;5040633;28;8876;-80
2022/04/14 12:54:54;;;;;;;;;0.80;0.80;;;;;;;;5041948;28;8860;-83
2022/04/14 12:57:23;;;;;;;;;1.80;1.80;;;;;;;;5040749;28;8929;-84
2022/04/14 13:00:11;;;;;;;;;1.80;1.80;;;;;;;;5037222;28;8888;-82
2022/04/14 13:02:41;;;;;;;;;3.40;2.20;;;;;;;;5035716;28;8825;-83
2022/04/14 13:05:12;;;;;;;;;2.20;2.20;;;;;;;;5038781;28;8888;-81
2022/04/14 13:07:47;;;;;;;;;1.80;1.80;;;;;;;;5042044;28;8990;-82
2022/04/14 13:10:14;;;;;;;;;2.20;2.20;;;;;;;;5039148;28;10092;-82
2022/04/14 13:12:44;;;;;;;;;3.00;2.80;;;;;;;;5040605;28;8884;-83
2022/04/14 13:15:16;;;;;;;;;3.20;3.20;;;;;;;;5040341;28;9116;-81
2022/04/14 13:17:45;;;;;;;;;4.80;4.80;;;;;;;;5033290;28;8896;-80
2022/04/14 13:20:16;;;;;;;;;2.80;2.80;;;;;;;;5040618;28;8868;-83
2022/04/14 13:22:44;;;;;;;;;3.00;2.60;;;;;;;;5020857;28;8844;-79
2022/04/14 13:25:12;;;;;;;;;2.40;2.40;;;;;;;;5040792;28;8872;-81
2022/04/14 13:27:40;;;;;;;;;0.80;0.80;;;;;;;;5006411;28;8871;-81
2022/04/14 13:30:08;;;;;;;;;0.80;0.80;;;;;;;;5037967;28;8868;-81
2022/04/14 13:32:35;;;;;;;;;0.00;0.00;;;;;;;;5037546;28;8846;-81
2022/04/14 13:35:05;;;;;;;;;0.00;0.00;;;;;;;;5021132;28;8867;-81
2022/04/14 13:37:33;;;;;;;;;0.00;0.00;;;;;;;;5038318;28;8867;-81
2022/04/14 13:40:02;;;;;;;;;0.00;0.00;;;;;;;;5039302;28;8856;-81
2022/04/14 13:42:30;;;;;;;;;0.00;0.00;;;;;;;;5039378;28;9452;-81
2022/04/14 13:44:57;;;;;;;;;0.00;0.00;;;;;;;;5038966;28;8871;-82
2022/04/14 13:47:25;;;;;;;;;0.00;0.00;;;;;;;;5037460;28;8828;-82
2022/04/14 13:49:53;;;;;;;;;0.00;0.00;;;;;;;;5039870;28;8828;-81
2022/04/14 13:52:21;;;;;;;;;0.00;0.00;;;;;;;;5038497;28;8820;-80
2022/04/14 13:54:49;;;;;;;;;3.00;1.40;;;;;;;;5038517;28;8898;-81
2022/04/14 13:57:16;;;;;;;;;0.00;0.00;;;;;;;;5040012;28;8875;-80
2022/04/14 13:59:43;;;;;;;;;0.40;0.40;;;;;;;;5039877;28;8864;-81
2022/04/14 14:02:12;;;;;;;;;1.40;0.00;;;;;;;;5039166;28;8955;-77
2022/04/14 14:04:40;;;;;;;;;1.00;1.00;;;;;;;;5042233;28;8949;-79
2022/04/14 14:07:07;;;;;;;;;0.00;0.00;;;;;;;;5040613;28;8998;-81
2022/04/14 14:09:36;;;;;;;;;0.40;0.40;;;;;;;;5039474;28;8880;-81
2022/04/14 14:12:05;;;;;;;;;0.00;0.00;;;;;;;;5040929;28;9598;-81
2022/04/14 14:14:32;;;;;;;;;0.80;0.00;;;;;;;;5041380;28;8878;-82
2022/04/14 14:16:59;;;;;;;;;0.00;0.00;;;;;;;;5044484;28;9008;-83
2022/04/14 14:19:27;;;;;;;;;0.40;0.00;;;;;;;;5038945;28;9005;-83
2022/04/14 14:21:54;;;;;;;;;0.60;0.60;;;;;;;;5023259;28;8859;-80
2022/04/14 14:24:23;;;;;;;;;0.00;0.00;;;;;;;;5039864;28;9310;-81
2022/04/14 14:26:51;;;;;;;;;0.00;0.00;;;;;;;;5043365;28;8872;-82
2022/04/14 14:29:19;;;;;;;;;0.00;0.00;;;;;;;;5044689;28;8864;-82
2022/04/14 14:31:46;;;;;;;;;0.00;0.00;;;;;;;;5042794;28;8812;-80
2022/04/14 14:34:14;;;;;;;;;1.20;0.00;;;;;;;;5040608;28;8864;-80
2022/04/14 14:36:45;;;;;;;;;0.40;0.40;;;;;;;;5034918;28;8843;-79
2022/04/14 14:39:13;;;;;;;;;0.20;0.00;;;;;;;;5033089;28;8899;-80
2022/04/14 14:41:41;;;;;;;;;0.00;0.00;;;;;;;;5042083;28;8854;-82
2022/04/14 14:44:09;;;;;;;;;0.40;0.40;;;;;;;;5042994;28;8879;-81
2022/04/14 14:46:37;;;;;;;;;0.80;0.00;;;;;;;;5045056;28;8890;-81